Time;durP1;ratioP1;P1;durP2;ratioP2;P2;SDS_P1;SDS_P2;PMS_P1;PMS_P2;Temp;Humidity;BMP_temperature;BMP_pressure;BME280_temperature;BME280_humidity;BME280_pressure;Samples;Min_cycle;Max_cycle;Signal;HPM_P1;HPM_P2
2021/12/11 00:02:06;;;;;;;31.98;18.65;;;-1.90;99.90;;;;;;5071986;28;20186;-68
2021/12/11 00:04:40;;;;;;;30.95;18.10;;;-1.80;99.90;;;;;;5071335;28;20044;-67
2021/12/11 00:07:12;;;;;;;39.25;19.70;;;-1.70;99.90;;;;;;5072089;28;20500;-68
2021/12/11 00:09:42;;;;;;;35.38;19.90;;;-1.80;99.90;;;;;;5071769;28;20041;-67
2021/12/11 00:12:22;;;;;;;41.55;22.00;;;-1.90;99.90;;;;;;5071878;28;20053;-69
2021/12/11 00:14:53;;;;;;;37.17;19.73;;;-2.00;99.90;;;;;;5070526;28;20055;-68
2021/12/11 00:17:23;;;;;;;38.03;20.15;;;-1.80;99.90;;;;;;5071987;28;20036;-67
2021/12/11 00:19:49;;;;;;;34.55;19.13;;;-2.10;99.90;;;;;;5070438;28;20113;-68
2021/12/11 00:22:19;;;;;;;31.33;17.85;;;-1.90;99.90;;;;;;5071710;28;20591;-67
2021/12/11 00:24:45;;;;;;;28.83;17.33;;;;;;;;;;5071374;28;20453;-67
2021/12/11 00:27:20;;;;;;;33.35;18.73;;;-2.20;99.90;;;;;;5071399;28;20044;-67
2021/12/11 00:29:50;;;;;;;36.67;19.52;;;-1.80;99.90;;;;;;5071289;28;20488;-67
2021/12/11 00:32:32;;;;;;;32.00;18.05;;;-2.10;99.90;;;;;;5071524;28;20040;-67
2021/12/11 00:35:09;;;;;;;35.72;18.58;;;-2.20;99.90;;;;;;5070296;28;20083;-67
2021/12/11 00:37:35;;;;;;;35.95;20.70;;;-2.30;99.90;;;;;;5087320;28;20040;-67
2021/12/11 00:40:13;;;;;;;31.27;18.75;;;-2.90;99.90;;;;;;5071730;28;20119;-67
2021/12/11 00:42:39;;;;;;;32.00;18.30;;;-1.30;99.90;;;;;;5070340;28;20053;-67
2021/12/11 00:45:12;;;;;;;34.58;18.35;;;-2.60;99.90;;;;;;5071544;28;20048;-67
2021/12/11 00:47:44;;;;;;;32.85;17.70;;;-1.50;99.90;;;;;;5071479;28;20052;-67
2021/12/11 00:50:14;;;;;;;34.63;18.60;;;-2.30;99.90;;;;;;5069783;28;20100;-67
2021/12/11 00:52:53;;;;;;;33.40;19.33;;;-2.30;99.90;;;;;;5069337;28;20048;-67
2021/12/11 00:55:26;;;;;;;39.40;20.65;;;-2.40;99.90;;;;;;5069800;28;20044;-67
2021/12/11 00:58:17;;;;;;;34.50;19.00;;;-2.30;99.90;;;;;;5069669;28;20048;-67
2021/12/11 01:01:03;;;;;;;35.08;19.65;;;-2.40;99.90;;;;;;5071076;28;20374;-67
2021/12/11 01:03:32;;;;;;;34.15;19.75;;;-2.10;99.90;;;;;;5070999;28;20048;-67
2021/12/11 01:06:01;;;;;;;36.97;19.00;;;-1.60;99.90;;;;;;5071297;28;20028;-67
2021/12/11 01:08:35;;;;;;;37.08;19.88;;;-1.20;99.90;;;;;;5071257;28;20040;-67
2021/12/11 01:11:11;;;;;;;33.63;19.80;;;-2.20;99.90;;;;;;5069876;28;20048;-67
2021/12/11 01:13:46;;;;;;;37.08;20.25;;;-1.70;99.90;;;;;;5069922;28;20040;-67
2021/12/11 01:16:15;;;;;;;41.20;20.73;;;-2.50;99.90;;;;;;5071430;28;20389;-67
2021/12/11 01:18:45;;;;;;;37.55;20.50;;;-2.90;99.90;;;;;;5071162;28;20032;-67
2021/12/11 01:24:14;;;;;;;37.42;20.70;;;-2.10;99.90;;;;;;5069837;28;20048;-67
2021/12/11 01:26:47;;;;;;;38.20;20.95;;;-2.30;99.90;;;;;;5070887;28;20051;-67
2021/12/11 01:29:14;;;;;;;34.78;20.33;;;-3.10;99.90;;;;;;5070844;28;20123;-67
2021/12/11 01:31:40;;;;;;;31.77;19.00;;;-2.50;99.90;;;;;;5069531;28;20057;-67
2021/12/11 01:34:07;;;;;;;35.30;20.33;;;-2.50;99.90;;;;;;5070981;28;20053;-67
2021/12/11 01:36:38;;;;;;;35.85;20.45;;;-2.50;99.90;;;;;;5070788;28;20072;-67
2021/12/11 01:39:09;;;;;;;36.65;21.15;;;-2.40;99.90;;;;;;5070536;28;20434;-67
2021/12/11 01:41:35;;;;;;;45.05;22.27;;;-2.30;99.90;;;;;;5070452;28;20399;-67
2021/12/11 01:44:07;;;;;;;39.65;22.73;;;-2.60;99.90;;;;;;5069030;28;20673;-67
2021/12/11 01:46:33;;;;;;;42.67;23.73;;;-2.30;99.90;;;;;;5068756;28;20088;-67
2021/12/11 01:49:01;;;;;;;40.38;23.08;;;-2.40;99.90;;;;;;5070432;28;20099;-67
2021/12/11 01:51:27;;;;;;;39.03;21.33;;;;;;;;;;5068906;28;20051;-67
2021/12/11 01:54:03;;;;;;;45.97;24.80;;;-2.70;99.90;;;;;;5070201;28;20385;-67
2021/12/11 01:56:32;;;;;;;47.22;24.02;;;-2.70;99.90;;;;;;5068880;28;20051;-67
2021/12/11 01:59:00;;;;;;;37.83;21.40;;;;;;;;;;5070462;28;20053;-67
2021/12/11 02:01:36;;;;;;;39.50;21.60;;;-2.40;99.90;;;;;;5068879;28;20055;-67
2021/12/11 02:04:04;;;;;;;;;;;-2.40;99.90;;;;;;5072179;28;20102;-66
2021/12/11 02:06:37;;;;;;;43.30;23.85;;;-2.40;99.90;;;;;;5074479;28;20280;-67
2021/12/11 02:09:20;;;;;;;44.13;23.77;;;-2.50;99.90;;;;;;5074449;28;20044;-67
2021/12/11 02:11:49;;;;;;;43.95;23.77;;;-2.30;99.90;;;;;;5074595;28;20400;-67
2021/12/11 02:14:21;;;;;;;40.72;22.40;;;-2.40;99.90;;;;;;5073032;28;20048;-67
2021/12/11 02:16:49;;;;;;;44.67;22.40;;;-2.60;99.90;;;;;;5056346;28;20044;-67
2021/12/11 02:19:32;;;;;;;38.35;21.88;;;-2.50;99.90;;;;;;5073002;28;20044;-67
2021/12/11 02:22:00;;;;;;;36.45;21.15;;;-2.80;99.90;;;;;;5074072;28;20048;-67
2021/12/11 02:24:36;;;;;;;35.22;19.73;;;-2.50;99.90;;;;;;5072572;28;20123;-67
2021/12/11 02:27:11;;;;;;;36.03;20.77;;;-2.50;99.90;;;;;;5072436;28;20052;-67
2021/12/11 02:29:43;;;;;;;37.17;20.58;;;-2.50;99.90;;;;;;5072680;28;20048;-67
2021/12/11 02:32:17;;;;;;;35.78;20.05;;;-2.60;99.90;;;;;;5073518;28;20044;-66
2021/12/11 02:34:52;;;;;;;31.85;19.42;;;-2.60;99.90;;;;;;5072791;28;20080;-67
2021/12/11 02:37:23;;;;;;;37.67;20.05;;;-2.80;99.90;;;;;;5073632;28;20070;-66
2021/12/11 02:39:49;;;;;;;36.35;20.90;;;;;;;;;;5073632;28;20124;-67
2021/12/11 02:42:33;;;;;;;38.47;21.65;;;-2.70;99.90;;;;;;5072137;28;20049;-67
2021/12/11 02:45:12;;;;;;;34.25;20.55;;;-2.70;99.90;;;;;;5073459;28;20045;-67
2021/12/11 02:47:46;;;;;;;35.80;20.95;;;-2.40;99.90;;;;;;5073290;28;20053;-66
2021/12/11 02:50:37;;;;;;;32.95;19.40;;;-2.70;99.90;;;;;;5073592;28;20040;-67
2021/12/11 02:53:13;;;;;;;36.97;22.15;;;-2.70;99.90;;;;;;5072580;28;20237;-66
2021/12/11 02:55:39;;;;;;;38.85;22.58;;;;;;;;;;5073766;28;20040;-66
2021/12/11 02:58:15;;;;;;;40.22;22.60;;;-3.40;99.90;;;;;;5072023;28;20067;-67
2021/12/11 03:00:46;;;;;;;37.90;21.17;;;-2.30;99.90;;;;;;5071952;28;20048;-66
2021/12/11 03:03:16;;;;;;;33.80;20.20;;;-2.70;99.90;;;;;;5073178;28;20071;-67
2021/12/11 03:05:56;;;;;;;34.80;20.70;;;-2.70;99.90;;;;;;5071748;28;20066;-66
2021/12/11 03:08:22;;;;;;;32.08;19.45;;;;;;;;;;5073156;28;20048;-67
2021/12/11 03:10:54;;;;;;;37.03;20.55;;;-2.80;99.90;;;;;;5071413;28;20139;-66
2021/12/11 03:13:20;;;;;;;34.38;20.38;;;-2.50;99.90;;;;;;5071662;28;20056;-67
2021/12/11 03:15:46;;;;;;;40.03;21.27;;;-2.80;99.90;;;;;;5072379;28;20043;-66
2021/12/11 03:18:13;;;;;;;33.60;19.70;;;-3.30;99.90;;;;;;5073246;28;20041;-67
2021/12/11 03:20:42;;;;;;;33.80;18.77;;;-2.90;99.90;;;;;;5071914;28;20048;-66
2021/12/11 03:23:08;;;;;;;36.63;20.98;;;;;;;;;;5072540;28;20080;-71
2021/12/11 03:25:34;;;;;;;34.90;19.27;;;-2.90;99.90;;;;;;5071601;28;20527;-66
2021/12/11 03:28:01;;;;;;;35.03;18.90;;;-3.00;99.90;;;;;;5072719;28;20411;-66
2021/12/11 03:30:31;;;;;;;33.15;19.00;;;-3.10;99.90;;;;;;5072565;28;20045;-67
2021/12/11 03:33:01;;;;;;;36.55;20.52;;;-2.90;99.90;;;;;;5072637;28;20033;-66
2021/12/11 03:35:28;;;;;;;31.05;18.65;;;-3.70;99.90;;;;;;5071268;28;20119;-67
2021/12/11 03:37:55;;;;;;;31.63;19.67;;;-3.00;99.90;;;;;;5054525;28;20059;-71
2021/12/11 03:40:22;;;;;;;38.95;20.08;;;-3.20;99.90;;;;;;5088291;28;20059;-71
2021/12/11 03:42:50;;;;;;;35.40;19.40;;;-3.10;99.90;;;;;;5072402;28;20048;-72
2021/12/11 03:45:29;;;;;;;33.75;19.05;;;-3.30;99.90;;;;;;5071075;28;20094;-71
2021/12/11 03:48:05;;;;;;;37.70;22.23;;;-3.10;99.90;;;;;;5072140;28;20060;-71
2021/12/11 03:50:31;;;;;;;35.20;19.95;;;-3.20;99.90;;;;;;5072358;28;20056;-72
2021/12/11 03:52:57;;;;;;;34.17;19.92;;;;;;;;;;5072081;28;20040;-71
2021/12/11 03:55:36;;;;;;;34.70;19.20;;;-3.10;99.90;;;;;;5072001;28;20127;-72
2021/12/11 03:58:07;;;;;;;43.67;20.88;;;-2.70;99.90;;;;;;5070488;28;20131;-71
2021/12/11 04:00:45;;;;;;;33.97;19.63;;;-3.00;99.90;;;;;;5071989;28;20123;-73
2021/12/11 04:03:14;;;;;;;36.08;19.42;;;-3.00;99.90;;;;;;5072186;28;20044;-72
2021/12/11 04:05:42;;;;;;;33.85;19.08;;;-3.00;99.90;;;;;;5072054;28;20048;-71
2021/12/11 04:08:20;;;;;;;35.88;19.48;;;-3.00;99.90;;;;;;5072103;28;20716;-71
2021/12/11 04:10:47;;;;;;;35.15;18.80;;;-3.10;99.90;;;;;;5072013;28;20132;-71
2021/12/11 04:13:14;;;;;;;32.45;19.55;;;;;;;;;;5072425;28;20101;-71
2021/12/11 04:15:45;;;;;;;39.33;21.10;;;-3.10;99.90;;;;;;5072701;28;20051;-72
2021/12/11 04:18:12;;;;;;;39.42;21.38;;;-3.30;99.90;;;;;;5071271;28;20401;-71
2021/12/11 04:20:41;;;;;;;37.83;21.38;;;-3.30;99.90;;;;;;5072370;28;20048;-72
2021/12/11 04:23:11;;;;;;;40.17;21.15;;;-3.00;99.90;;;;;;5072241;28;20036;-71
2021/12/11 04:25:42;;;;;;;37.20;21.95;;;-3.30;99.90;;;;;;5070368;28;20048;-72
2021/12/11 04:28:10;;;;;;;41.22;22.63;;;-3.70;99.90;;;;;;5086683;28;20399;-73
2021/12/11 04:30:37;;;;;;;39.70;23.00;;;-3.10;99.90;;;;;;5071416;28;20049;-72
2021/12/11 04:33:03;;;;;;;43.40;23.25;;;-3.00;99.90;;;;;;5071415;28;20124;-71
2021/12/11 04:35:30;;;;;;;45.30;22.77;;;-3.10;99.90;;;;;;5071422;28;20200;-72
2021/12/11 04:38:02;;;;;;;44.35;23.30;;;-3.10;99.90;;;;;;5071277;28;20119;-71
2021/12/11 04:40:33;;;;;;;46.22;24.15;;;-3.20;99.90;;;;;;5071464;28;20442;-72
2021/12/11 04:45:33;;;;;;;42.47;22.73;;;-3.20;99.90;;;;;;5071402;28;20485;-72
2021/12/11 04:48:22;;;;;;;40.88;22.90;;;-3.20;99.90;;;;;;5069938;28;20063;-72
2021/12/11 04:56:32;;;;;;;39.75;22.10;;;-2.80;99.90;;;;;;5071365;28;20132;-72
2021/12/11 05:01:57;;;;;;;34.65;20.92;;;-3.30;99.90;;;;;;5071110;28;20052;-72
2021/12/11 05:07:06;;;;;;;40.63;22.23;;;-3.20;99.90;;;;;;5069920;28;20048;-71
2021/12/11 05:09:39;;;;;;;39.65;22.30;;;-3.20;99.90;;;;;;5071189;28;20438;-71
2021/12/11 05:12:34;;;;;;;38.42;22.02;;;-3.90;99.90;;;;;;5069377;28;20488;-72
2021/12/11 05:15:03;;;;;;;42.80;23.08;;;-3.40;99.90;;;;;;5070904;28;20037;-71
2021/12/11 05:17:29;;;;;;;48.55;24.70;;;;;;;;;;5070743;28;20143;-71
2021/12/11 05:19:55;;;;;;;41.92;23.33;;;;;;;;;;5070810;28;20385;-71
2021/12/11 05:22:21;;;;;;;47.83;24.73;;;-3.40;99.90;;;;;;5070860;28;20057;-71
2021/12/11 05:24:51;;;;;;;46.15;23.15;;;-3.60;99.90;;;;;;5070837;28;20543;-71
2021/12/11 05:27:17;;;;;;;44.58;23.65;;;-3.70;99.90;;;;;;5070531;28;20950;-71
2021/12/11 05:29:44;;;;;;;39.03;21.67;;;-3.10;99.90;;;;;;5069258;28;20270;-71
2021/12/11 05:32:13;;;;;;;40.80;21.83;;;-3.60;99.90;;;;;;5070578;28;20036;-72
2021/12/11 05:34:39;;;;;;;37.15;21.33;;;-3.40;99.90;;;;;;5070519;28;20032;-72
2021/12/11 05:37:07;;;;;;;35.45;20.02;;;-3.30;99.90;;;;;;5070483;28;20049;-72
2021/12/11 05:39:32;;;;;;;37.17;20.55;;;-3.10;99.90;;;;;;5069342;28;20119;-72
2021/12/11 05:41:59;;;;;;;41.22;22.05;;;-3.60;99.90;;;;;;5070721;28;20465;-72
2021/12/11 05:44:24;;;;;;;36.92;21.15;;;-3.30;99.90;;;;;;5070633;28;20047;-73
2021/12/11 05:46:51;;;;;;;40.58;22.95;;;-3.50;99.90;;;;;;5069413;28;20056;-71
2021/12/11 05:49:17;;;;;;;53.55;26.70;;;-3.10;99.90;;;;;;5070536;28;20040;-72
2021/12/11 05:51:46;;;;;;;53.08;26.90;;;-3.20;99.90;;;;;;5070105;28;20124;-72
2021/12/11 05:54:17;;;;;;;64.65;32.75;;;-3.10;99.90;;;;;;5068818;28;20053;-72
2021/12/11 05:56:44;;;;;;;83.38;36.20;;;-3.30;99.90;;;;;;5069052;28;20124;-73
2021/12/11 05:59:12;;;;;;;92.28;39.15;;;-3.00;99.90;;;;;;5069611;28;20105;-72
2021/12/11 06:01:59;;;;;;;107.03;43.50;;;-2.80;99.90;;;;;;5069303;28;20045;-72
2021/12/11 06:04:32;;;;;;;106.90;43.78;;;-2.70;99.90;;;;;;5070135;28;20052;-72
2021/12/11 06:06:59;;;;;;;107.88;43.28;;;-2.70;99.90;;;;;;5070389;28;20127;-73
2021/12/11 06:09:26;;;;;;;94.97;40.95;;;-2.60;99.90;;;;;;5070247;28;20048;-71
2021/12/11 06:11:57;;;;;;;84.60;39.15;;;-3.10;99.90;;;;;;5070024;28;20056;-72
2021/12/11 06:14:23;;;;;;;90.20;40.72;;;-2.00;99.90;;;;;;5070267;28;20045;-72
2021/12/11 06:16:57;;;;;;;103.47;42.72;;;-2.50;99.90;;;;;;5070000;28;20037;-72
2021/12/11 06:19:25;;;;;;;87.13;38.30;;;-2.30;99.90;;;;;;5070325;28;20080;-71
2021/12/11 06:21:52;;;;;;;79.43;37.33;;;-2.30;99.90;;;;;;5069265;28;20450;-71
2021/12/11 06:24:19;;;;;;;81.13;36.97;;;-2.50;99.90;;;;;;5068808;28;20044;-72
2021/12/11 06:26:45;;;;;;;85.00;37.70;;;-2.80;99.90;;;;;;5070357;28;20400;-72
2021/12/11 06:29:11;;;;;;;77.35;35.28;;;-2.90;99.90;;;;;;5070075;28;20097;-71
2021/12/11 06:31:37;;;;;;;67.93;33.22;;;-2.60;99.90;;;;;;5069806;28;20037;-67
2021/12/11 06:34:03;;;;;;;59.05;30.65;;;-2.70;99.90;;;;;;5068450;28;20047;-67
2021/12/11 06:36:30;;;;;;;67.97;33.00;;;-2.60;99.90;;;;;;5070028;28;20127;-67
2021/12/11 06:39:00;;;;;;;60.63;31.02;;;-2.70;99.90;;;;;;5069785;28;20094;-67
2021/12/11 06:41:30;;;;;;;58.42;30.67;;;-2.40;99.90;;;;;;5068363;28;20053;-67
2021/12/11 06:43:56;;;;;;;54.08;28.25;;;-2.80;99.90;;;;;;5069734;28;20471;-67
2021/12/11 06:46:22;;;;;;;56.22;29.60;;;-2.90;99.90;;;;;;5069453;28;20064;-67
2021/12/11 06:48:48;;;;;;;56.67;29.90;;;-2.70;99.90;;;;;;5069879;28;20400;-67
2021/12/11 06:51:14;;;;;;;47.95;26.42;;;-2.90;99.90;;;;;;5072874;28;20049;-67
2021/12/11 06:53:48;;;;;;;50.63;26.17;;;-3.20;99.90;;;;;;5073633;28;20049;-67
2021/12/11 06:56:17;;;;;;;49.78;26.98;;;-2.90;99.90;;;;;;5073544;28;20476;-67
2021/12/11 06:58:43;;;;;;;50.40;27.33;;;-3.10;99.90;;;;;;5073014;28;20036;-67
2021/12/11 07:01:10;;;;;;;53.70;27.73;;;-2.90;99.90;;;;;;5071879;28;20123;-67
2021/12/11 07:03:38;;;;;;;51.05;27.38;;;-2.90;99.90;;;;;;5073640;28;20059;-67
2021/12/11 07:06:06;;;;;;;44.60;25.70;;;-3.10;99.90;;;;;;5072257;28;20063;-67
2021/12/11 07:08:32;;;;;;;50.72;26.23;;;-2.70;99.90;;;;;;5073172;28;20123;-67
2021/12/11 07:10:59;;;;;;;55.33;28.23;;;-2.60;99.90;;;;;;5073304;28;20139;-67
2021/12/11 07:13:25;;;;;;;51.97;27.27;;;;;;;;;;5073101;28;20048;-67
2021/12/11 07:15:52;;;;;;;48.13;27.02;;;-3.00;99.90;;;;;;5071413;28;20484;-67
2021/12/11 07:18:19;;;;;;;60.67;29.58;;;-3.60;99.90;;;;;;5073154;28;20045;-67
2021/12/11 07:20:45;;;;;;;61.03;29.52;;;-2.90;99.90;;;;;;5072500;28;20041;-67
2021/12/11 07:23:11;;;;;;;56.95;28.58;;;;;;;;;;5072940;28;20047;-67
2021/12/11 07:25:45;;;;;;;71.22;35.30;;;-3.10;99.90;;;;;;5072873;28;20049;-67
2021/12/11 07:28:11;;;;;;;84.60;36.45;;;-3.00;99.90;;;;;;5071556;28;20063;-67
2021/12/11 07:30:40;;;;;;;117.45;35.78;;;-2.90;99.90;;;;;;5071346;28;20045;-67
2021/12/11 07:33:07;;;;;;;130.20;37.42;;;-2.50;99.90;;;;;;5071676;28;20105;-67
2021/12/11 07:35:35;;;;;;;203.85;42.03;;;-3.00;99.90;;;;;;5071666;28;20071;-67
2021/12/11 07:38:02;;;;;;;168.82;41.38;;;-3.60;99.90;;;;;;5071296;28;20044;-67
2021/12/11 07:40:31;;;;;;;166.45;39.58;;;-2.30;99.90;;;;;;5072321;28;20044;-67
2021/12/11 07:42:57;;;;;;;93.07;35.60;;;-2.30;99.90;;;;;;5072466;28;20584;-71
2021/12/11 07:45:25;;;;;;;81.43;35.03;;;-3.10;99.90;;;;;;5072816;28;20123;-72
2021/12/11 07:47:51;;;;;;;84.32;35.83;;;-3.00;99.90;;;;;;5072914;28;20049;-73
2021/12/11 07:50:19;;;;;;;82.22;34.08;;;-3.10;99.90;;;;;;5072338;28;20385;-73
2021/12/11 07:52:45;;;;;;;62.55;31.63;;;;;;;;;;5072743;28;20154;-73
2021/12/11 07:55:11;;;;;;;62.28;30.90;;;;;;;;;;5072534;28;20047;-72
2021/12/11 07:57:39;;;;;;;66.88;32.00;;;-3.10;99.90;;;;;;5072534;28;20056;-72
2021/12/11 08:00:08;;;;;;;72.07;33.33;;;-2.50;99.90;;;;;;5072058;28;20074;-73
2021/12/11 08:02:34;;;;;;;66.75;32.50;;;-2.10;99.90;;;;;;5071984;28;20040;-73
2021/12/11 08:05:00;;;;;;;70.05;32.53;;;;;;;;;;5071987;28;20048;-73
2021/12/11 08:07:26;;;;;;;64.82;31.58;;;-3.10;99.90;;;;;;5072025;28;20046;-73
2021/12/11 08:09:52;;;;;;;60.88;31.27;;;-3.00;99.90;;;;;;5071974;28;20039;-72
2021/12/11 08:12:19;;;;;;;65.13;31.83;;;;;;;;;;5070684;28;20091;-73
2021/12/11 08:14:45;;;;;;;59.92;29.10;;;-3.10;99.90;;;;;;5056094;28;20071;-72
2021/12/11 08:17:15;;;;;;;60.08;30.27;;;-2.90;99.90;;;;;;5053679;28;20036;-72
2021/12/11 08:19:40;;;;;;;59.15;30.75;;;-2.90;99.90;;;;;;5069263;28;20064;-72
2021/12/11 08:22:09;;;;;;;63.00;30.90;;;-2.70;99.90;;;;;;5070886;28;20091;-72
2021/12/11 08:24:37;;;;;;;65.03;31.25;;;;;;;;;;5069067;28;20048;-72
2021/12/11 08:27:11;;;;;;;61.42;30.73;;;-3.20;99.90;;;;;;5070991;28;20120;-72
2021/12/11 08:29:37;;;;;;;59.33;30.40;;;-2.10;99.90;;;;;;5070787;28;20052;-72
2021/12/11 08:32:03;;;;;;;66.85;29.90;;;-2.30;99.90;;;;;;5069899;28;20048;-67
2021/12/11 08:34:30;;;;;;;59.35;30.70;;;-2.60;99.90;;;;;;5070836;28;20539;-66
2021/12/11 08:36:56;;;;;;;62.35;32.20;;;-2.30;99.90;;;;;;5069739;28;20040;-67
2021/12/11 08:39:22;;;;;;;59.97;30.10;;;-2.30;99.90;;;;;;5070975;28;20044;-67
2021/12/11 08:41:51;;;;;;;60.80;32.50;;;-2.60;99.90;;;;;;5070666;28;20044;-67
2021/12/11 08:44:18;;;;;;;65.28;32.90;;;-2.50;99.90;;;;;;5069030;28;20055;-68
2021/12/11 08:46:54;;;;;;;64.72;31.73;;;-2.50;99.90;;;;;;5070209;28;20140;-67
2021/12/11 08:49:24;;;;;;;65.03;32.35;;;-2.50;99.90;;;;;;5070258;28;20052;-67
2021/12/11 08:52:02;;;;;;;63.17;32.45;;;-1.60;99.90;;;;;;5069921;28;20040;-67
2021/12/11 08:54:32;;;;;;;68.40;33.53;;;-2.30;99.90;;;;;;5068616;28;20052;-67
2021/12/11 08:57:00;;;;;;;68.70;31.73;;;-2.20;99.90;;;;;;5069838;28;20048;-67
2021/12/11 08:59:30;;;;;;;72.72;34.22;;;-2.10;99.90;;;;;;5065034;28;20044;-67
2021/12/11 09:02:17;;;;;;;61.65;32.90;;;-2.20;99.90;;;;;;5068780;28;20052;-67
2021/12/11 09:04:43;;;;;;;76.03;37.85;;;;;;;;;;5068429;28;20052;-67
2021/12/11 09:07:27;;;;;;;68.30;35.20;;;-1.90;99.90;;;;;;5068447;28;20148;-67
2021/12/11 09:09:59;;;;;;;84.25;37.97;;;-2.10;99.90;;;;;;5066186;28;20032;-67
2021/12/11 09:12:35;;;;;;;79.07;39.03;;;-2.00;99.90;;;;;;5069751;28;20033;-67
2021/12/11 09:15:36;;;;;;;86.30;42.25;;;-1.80;99.90;;;;;;5069928;28;20048;-67
2021/12/11 09:18:19;;;;;;;96.90;44.40;;;-1.90;99.90;;;;;;5051135;28;20101;-67
2021/12/11 09:20:57;;;;;;;100.55;43.97;;;-1.70;99.90;;;;;;5068207;28;20059;-67
2021/12/11 09:23:31;;;;;;;106.00;45.45;;;-1.70;99.90;;;;;;5070124;28;20044;-72
2021/12/11 09:26:21;;;;;;;98.30;44.85;;;-1.60;99.90;;;;;;5069632;28;20040;-72
2021/12/11 09:28:52;;;;;;;104.22;45.03;;;-1.40;99.90;;;;;;5069448;28;20056;-72
2021/12/11 09:31:25;;;;;;;99.80;45.00;;;-1.30;99.90;;;;;;5069732;28;20484;-72
2021/12/11 09:33:56;;;;;;;103.55;45.80;;;-1.30;99.90;;;;;;5068730;28;20041;-72
2021/12/11 09:36:31;;;;;;;99.22;46.08;;;-1.00;99.90;;;;;;5070185;28;20087;-72
2021/12/11 09:39:08;;;;;;;105.85;49.20;;;-0.50;99.90;;;;;;5070054;28;20045;-72
2021/12/11 09:41:35;;;;;;;123.43;54.00;;;-0.40;99.90;;;;;;5068254;28;20056;-71
2021/12/11 09:44:07;;;;;;;128.68;59.03;;;0.30;99.90;;;;;;5068646;28;20067;-70
2021/12/11 09:46:39;;;;;;;151.85;67.07;;;0.70;99.90;;;;;;5069203;28;20056;-69
2021/12/11 09:49:07;;;;;;;133.25;60.60;;;1.00;99.90;;;;;;5068453;28;20052;-69
2021/12/11 09:51:39;;;;;;;145.25;63.58;;;1.10;99.90;;;;;;5069089;28;20516;-70
2021/12/11 09:54:11;;;;;;;129.80;64.43;;;1.20;99.90;;;;;;5068604;28;20044;-71
2021/12/11 09:56:48;;;;;;;154.73;69.82;;;1.50;99.90;;;;;;5068011;28;20557;-70
2021/12/11 09:59:18;;;;;;;138.35;66.75;;;0.70;99.90;;;;;;5085106;28;20530;-70
2021/12/11 10:01:48;;;;;;;135.88;64.68;;;1.60;99.90;;;;;;5068493;28;20511;-70
2021/12/11 10:04:28;;;;;;;130.43;62.42;;;0.30;99.90;;;;;;5069712;28;20032;-70
2021/12/11 10:09:27;;;;;;;114.80;58.78;;;1.10;99.90;;;;;;5069939;28;20048;-70
2021/12/11 10:12:06;;;;;;;107.65;55.38;;;1.20;99.90;;;;;;5067962;28;20488;-70
2021/12/11 10:14:43;;;;;;;100.35;53.15;;;1.10;99.90;;;;;;5069782;28;20059;-70
2021/12/11 10:17:20;;;;;;;82.93;47.05;;;0.90;99.90;;;;;;5052080;28;20060;-71
2021/12/11 10:19:51;;;;;;;80.63;47.28;;;0.90;99.90;;;;;;5068143;28;20049;-70
2021/12/11 10:22:22;;;;;;;92.05;50.05;;;1.50;99.90;;;;;;5068176;28;20079;-71
2021/12/11 10:24:50;;;;;;;95.55;48.72;;;1.10;99.90;;;;;;5069481;28;20055;-71
2021/12/11 10:27:25;;;;;;;77.72;43.92;;;1.60;99.90;;;;;;5072450;28;20040;-72
2021/12/11 10:29:53;;;;;;;81.45;44.35;;;2.00;99.90;;;;;;5072082;28;20055;-72
2021/12/11 10:32:23;;;;;;;85.30;43.60;;;1.20;99.90;;;;;;5073131;28;20556;-72
2021/12/11 10:34:54;;;;;;;78.88;43.20;;;1.20;99.90;;;;;;5071849;28;20083;-72
2021/12/11 10:37:27;;;;;;;72.45;42.22;;;1.20;99.90;;;;;;5072391;28;20037;-72
2021/12/11 10:40:00;;;;;;;77.90;42.88;;;1.50;99.90;;;;;;5072963;28;20032;-71
2021/12/11 10:42:26;;;;;;;68.75;39.95;;;1.70;99.90;;;;;;5073390;28;20537;-72
2021/12/11 10:44:58;;;;;;;68.97;38.33;;;1.40;99.90;;;;;;5071482;28;20128;-71
2021/12/11 10:47:33;;;;;;;66.78;38.55;;;1.60;99.90;;;;;;5071702;28;20068;-71
2021/12/11 10:50:03;;;;;;;70.38;38.90;;;1.60;99.90;;;;;;5071213;28;20085;-71
2021/12/11 10:52:31;;;;;;;74.57;40.67;;;0.60;99.90;;;;;;5073002;28;20388;-71
2021/12/11 10:55:00;;;;;;;66.88;37.13;;;1.70;99.90;;;;;;5070942;28;20063;-71
2021/12/11 10:57:26;;;;;;;63.40;37.63;;;1.40;99.90;;;;;;5071516;28;20087;-72
2021/12/11 10:59:59;;;;;;;65.45;39.42;;;1.80;99.90;;;;;;5057925;28;20527;-71
2021/12/11 11:02:30;;;;;;;68.65;37.95;;;1.80;99.90;;;;;;5052486;28;20041;-70
2021/12/11 11:04:59;;;;;;;63.22;36.38;;;0.70;99.90;;;;;;5052147;28;20056;-70
2021/12/11 11:07:27;;;;;;;61.60;37.40;;;1.90;99.90;;;;;;5052533;28;20045;-70
2021/12/11 11:09:57;;;;;;;61.80;36.40;;;1.90;99.90;;;;;;5056544;28;20507;-71
2021/12/11 11:12:25;;;;;;;70.00;38.80;;;1.90;99.90;;;;;;5070732;28;20037;-71
2021/12/11 11:14:53;;;;;;;68.93;38.70;;;2.00;99.90;;;;;;5071892;28;20063;-71
2021/12/11 11:17:23;;;;;;;62.97;38.58;;;2.20;99.90;;;;;;5071321;28;20727;-71
2021/12/11 11:19:51;;;;;;;58.60;34.50;;;2.30;99.90;;;;;;5072511;28;20454;-71
2021/12/11 11:22:22;;;;;;;69.75;36.75;;;2.40;99.90;;;;;;5073002;28;20072;-71
2021/12/11 11:24:58;;;;;;;63.55;36.25;;;2.10;99.90;;;;;;5070961;28;20056;-71
2021/12/11 11:27:25;;;;;;;57.55;36.78;;;;;;;;;;5055011;28;20147;-71
2021/12/11 11:29:51;;;;;;;63.03;38.28;;;2.20;99.90;;;;;;5057973;28;20057;-71
2021/12/11 11:32:31;;;;;;;57.67;35.30;;;3.50;99.90;;;;;;5050929;28;20040;-71
2021/12/11 11:35:08;;;;;;;58.97;36.72;;;2.60;99.90;;;;;;5052033;28;20471;-71
2021/12/11 11:37:35;;;;;;;56.70;35.08;;;;;;;;;;5050762;28;20366;-71
2021/12/11 11:40:07;;;;;;;57.83;34.25;;;2.70;99.90;;;;;;5050811;28;20052;-71
2021/12/11 11:42:34;;;;;;;54.13;36.38;;;2.70;99.90;;;;;;5050760;28;20060;-70
2021/12/11 11:45:03;;;;;;;52.30;34.45;;;2.60;99.90;;;;;;5050789;28;20056;-71
2021/12/11 11:47:29;;;;;;;56.58;36.40;;;3.50;99.90;;;;;;5052058;28;20432;-71
2021/12/11 11:49:58;;;;;;;58.40;36.38;;;;;;;;;;5033689;28;20048;-71
2021/12/11 11:52:26;;;;;;;56.25;36.20;;;3.00;99.90;;;;;;5050968;28;20045;-71
2021/12/11 11:54:55;;;;;;;54.35;36.40;;;3.10;99.90;;;;;;5051351;28;20521;-71
2021/12/11 11:57:26;;;;;;;51.65;35.38;;;3.10;99.90;;;;;;5050245;28;20488;-71
2021/12/11 11:59:54;;;;;;;53.47;35.80;;;3.20;99.90;;;;;;5052014;28;20118;-71
2021/12/11 12:02:23;;;;;;;49.13;34.15;;;3.30;99.90;;;;;;5066790;28;20049;-71
2021/12/11 12:04:51;;;;;;;52.15;34.40;;;4.30;99.90;;;;;;5051451;28;20145;-70
2021/12/11 12:07:24;;;;;;;48.95;35.10;;;3.40;99.90;;;;;;5066682;28;20049;-71
2021/12/11 12:09:51;;;;;;;51.05;33.75;;;;;;;;;;5052015;28;20473;-71
2021/12/11 12:12:17;;;;;;;48.70;33.72;;;3.60;99.90;;;;;;5052090;28;20041;-71
2021/12/11 12:14:44;;;;;;;46.50;33.50;;;3.10;99.90;;;;;;5052117;28;20048;-71
2021/12/11 12:17:14;;;;;;;51.33;34.47;;;3.60;99.90;;;;;;5067204;28;20517;-71
2021/12/11 12:19:41;;;;;;;47.70;33.42;;;3.60;99.90;;;;;;5051632;28;20052;-71
2021/12/11 12:22:09;;;;;;;49.45;32.88;;;3.60;99.90;;;;;;5051667;28;20178;-71
2021/12/11 12:24:38;;;;;;;53.90;34.40;;;3.60;99.90;;;;;;5066841;28;20063;-71
2021/12/11 12:27:07;;;;;;;47.60;33.65;;;3.70;99.90;;;;;;5051577;28;20052;-71
2021/12/11 12:29:35;;;;;;;49.95;33.90;;;3.90;99.90;;;;;;5066746;28;20049;-71
2021/12/11 12:32:09;;;;;;;45.33;32.25;;;3.80;99.90;;;;;;5050025;28;20053;-71
2021/12/11 12:34:35;;;;;;;47.85;33.20;;;;;;;;;;5050117;28;20087;-71
2021/12/11 12:37:01;;;;;;;45.97;33.08;;;3.70;99.90;;;;;;5050265;28;20132;-71
2021/12/11 12:39:37;;;;;;;49.47;32.72;;;3.70;99.90;;;;;;5050394;28;20465;-72
2021/12/11 12:42:31;;;;;;;48.33;33.92;;;4.10;99.90;;;;;;5050299;28;20116;-72
2021/12/11 12:45:23;;;;;;;45.00;32.15;;;4.00;99.90;;;;;;5050184;28;20102;-71
2021/12/11 12:47:56;;;;;;;49.28;32.88;;;4.00;99.90;;;;;;5044000;28;20136;-72
2021/12/11 12:50:38;;;;;;;52.72;33.08;;;3.90;99.90;;;;;;5050201;28;20114;-72
2021/12/11 12:53:05;;;;;;;53.78;33.50;;;3.70;99.90;;;;;;5049892;28;20043;-72
2021/12/11 12:55:41;;;;;;;47.47;33.10;;;3.70;99.90;;;;;;5049956;28;20116;-72
2021/12/11 12:58:12;;;;;;;47.85;33.17;;;3.80;99.90;;;;;;5051209;28;20045;-72
2021/12/11 13:00:54;;;;;;;49.72;32.80;;;3.90;99.90;;;;;;5051066;28;20114;-72
2021/12/11 13:03:23;;;;;;;48.28;33.15;;;3.90;99.90;;;;;;5066709;28;20147;-72
2021/12/11 13:05:56;;;;;;;49.83;33.05;;;3.60;99.90;;;;;;5049846;28;20477;-72
2021/12/11 13:08:39;;;;;;;46.53;32.97;;;3.90;99.90;;;;;;5051435;28;20052;-72
2021/12/11 13:11:10;;;;;;;48.15;33.75;;;3.90;99.90;;;;;;5051161;28;20424;-72
2021/12/11 13:13:37;;;;;;;54.47;33.50;;;3.80;99.90;;;;;;5049528;28;20128;-72